createdAt,value
2023-12-18T00:03:06.962Z,3.94
2023-12-18T00:06:07.215Z,3.92
2023-12-18T00:08:35.155Z,3.89
2023-12-18T00:11:06.459Z,3.88
2023-12-18T00:13:45.090Z,3.87
2023-12-18T00:17:10.797Z,3.84
2023-12-18T00:19:38.898Z,3.84
2023-12-18T00:22:06.149Z,3.83
2023-12-18T00:24:33.838Z,3.80
2023-12-18T00:27:10.133Z,3.76
2023-12-18T00:30:02.785Z,3.76
2023-12-18T00:32:30.473Z,3.77
2023-12-18T00:35:27.925Z,3.70
2023-12-18T00:40:37.983Z,3.68
2023-12-18T00:43:06.014Z,3.67
2023-12-18T00:45:33.681Z,3.66
2023-12-18T00:48:54.982Z,3.62
2023-12-18T00:51:22.551Z,3.60
2023-12-18T00:54:05.073Z,3.59
2023-12-18T00:56:33.490Z,3.57
2023-12-18T00:59:52.615Z,3.56
2023-12-18T01:02:44.576Z,3.51
2023-12-18T01:05:12.860Z,3.51
2023-12-18T01:07:42.715Z,3.47
2023-12-18T01:10:35.939Z,3.44
2023-12-18T01:13:54.777Z,3.43
2023-12-18T01:16:22.256Z,3.44
2023-12-18T01:18:58.321Z,3.39
2023-12-18T01:21:25.748Z,3.38
2023-12-18T01:24:09.624Z,3.38
2023-12-18T01:26:40.870Z,3.35
2023-12-18T01:29:08.870Z,3.34
2023-12-18T01:31:36.398Z,3.33
2023-12-18T01:34:19.733Z,3.31
2023-12-18T01:36:47.499Z,3.29
2023-12-18T01:39:18.110Z,3.27
2023-12-18T01:42:09.953Z,3.28
2023-12-18T01:47:35.915Z,3.25
2023-12-18T01:50:06.732Z,3.27
2023-12-18T01:53:56.825Z,3.24
2023-12-18T01:56:38.980Z,3.19
2023-12-18T01:59:48.655Z,3.18
2023-12-18T02:02:16.683Z,3.18
2023-12-18T02:04:47.472Z,3.14
2023-12-18T02:07:41.676Z,3.11
2023-12-18T02:10:15.197Z,3.09
2023-12-18T02:12:43.106Z,3.11
2023-12-18T02:18:11.494Z,3.07
2023-12-18T02:20:43.769Z,3.06
2023-12-18T02:23:12.217Z,3.03
2023-12-18T02:26:06.736Z,2.99
2023-12-18T02:29:49.579Z,3.01
2023-12-18T02:32:47.488Z,2.99
2023-12-18T02:35:23.883Z,2.99
2023-12-18T02:37:55.874Z,2.96
2023-12-18T02:40:26.301Z,2.94
2023-12-18T02:42:54.339Z,2.95
2023-12-18T02:45:21.748Z,2.94
2023-12-18T02:47:49.553Z,2.91
2023-12-18T02:50:17.790Z,2.91
2023-12-18T02:52:45.405Z,2.89
2023-12-18T02:55:13.458Z,2.91
2023-12-18T02:57:41.342Z,2.91
2023-12-18T03:00:10.104Z,2.93
2023-12-18T03:02:39.426Z,2.91
2023-12-18T03:05:07.280Z,2.89
2023-12-18T03:07:35.167Z,2.90
2023-12-18T03:10:05.565Z,2.89
2023-12-18T03:12:48.583Z,2.87
2023-12-18T03:15:15.878Z,2.86
2023-12-18T03:17:54.711Z,2.87
2023-12-18T03:20:30.069Z,2.88
2023-12-18T03:22:57.722Z,2.87
2023-12-18T03:25:25.001Z,2.87
2023-12-18T03:28:05.152Z,2.88
2023-12-18T03:30:32.673Z,2.87
2023-12-18T03:33:01.012Z,2.87
2023-12-18T03:35:28.377Z,2.89
2023-12-18T03:37:55.862Z,2.87
2023-12-18T03:40:23.272Z,2.88
2023-12-18T03:42:50.942Z,2.88
2023-12-18T03:45:18.585Z,2.88
2023-12-18T03:47:46.547Z,2.87
2023-12-18T03:50:14.112Z,2.88
2023-12-18T03:52:49.993Z,2.87
2023-12-18T03:55:49.515Z,2.87
2023-12-18T03:58:17.455Z,2.88
2023-12-18T04:00:45.001Z,2.86
2023-12-18T04:03:12.562Z,2.85
2023-12-18T04:05:39.865Z,2.85
2023-12-18T04:08:07.593Z,2.81
2023-12-18T04:10:34.811Z,2.80
2023-12-18T04:13:02.448Z,2.78
2023-12-18T04:15:29.684Z,2.80
2023-12-18T04:17:57.475Z,2.79
2023-12-18T04:20:24.980Z,2.79
2023-12-18T04:22:53.172Z,2.78
2023-12-18T04:25:20.599Z,2.78
2023-12-18T04:27:48.285Z,2.78
2023-12-18T04:30:16.438Z,2.79
2023-12-18T04:32:44.237Z,2.81
2023-12-18T04:35:11.700Z,2.79
2023-12-18T04:40:24.532Z,2.76
2023-12-18T04:42:55.334Z,2.76
2023-12-18T04:46:30.459Z,2.76
2023-12-18T04:48:58.042Z,2.78
2023-12-18T04:51:25.386Z,2.76
2023-12-18T04:53:57.140Z,2.77
2023-12-18T04:56:28.260Z,2.76
2023-12-18T04:58:59.130Z,2.77
2023-12-18T05:02:18.188Z,2.77
2023-12-18T05:04:46.329Z,2.74
2023-12-18T05:07:39.167Z,2.70
2023-12-18T05:10:07.261Z,2.70
2023-12-18T05:12:38.182Z,2.68
2023-12-18T05:15:11.367Z,2.68
2023-12-18T05:18:05.451Z,2.66
2023-12-18T05:20:36.178Z,2.67
2023-12-18T05:23:03.588Z,2.67
2023-12-18T05:25:31.188Z,2.66
2023-12-18T05:28:25.747Z,2.65
2023-12-18T05:30:54.066Z,2.61
2023-12-18T05:33:21.867Z,2.63
2023-12-18T05:35:49.738Z,2.62
2023-12-18T05:42:25.260Z,2.55
2023-12-18T05:44:52.864Z,2.49
2023-12-18T05:47:20.334Z,2.51
2023-12-18T05:49:52.596Z,2.50
2023-12-18T05:52:21.140Z,2.48
2023-12-18T05:54:48.394Z,2.44
2023-12-18T06:00:33.125Z,2.41
2023-12-18T06:03:07.368Z,2.39
2023-12-18T06:05:35.218Z,2.36
2023-12-18T06:08:04.497Z,2.36
2023-12-18T06:10:31.881Z,2.35
2023-12-18T06:12:59.395Z,2.32
2023-12-18T06:15:46.652Z,2.30
2023-12-18T06:18:14.418Z,2.29
2023-12-18T06:21:07.374Z,2.29
2023-12-18T06:23:38.499Z,2.28
2023-12-18T06:26:10.866Z,2.25
2023-12-18T06:28:38.431Z,2.26
2023-12-18T06:31:05.987Z,2.25
2023-12-18T06:36:47.091Z,2.24
2023-12-18T06:39:15.124Z,2.24
2023-12-18T06:41:42.362Z,2.25
2023-12-18T06:44:13.124Z,2.27
2023-12-18T06:47:06.103Z,2.27
2023-12-18T06:49:34.091Z,2.28
2023-12-18T06:52:01.577Z,2.31
2023-12-18T06:55:20.718Z,2.31
2023-12-18T06:57:48.404Z,2.32
2023-12-18T07:00:16.540Z,2.33
2023-12-18T07:02:44.190Z,2.34
2023-12-18T07:05:11.885Z,2.36
2023-12-18T07:07:39.879Z,2.37
2023-12-18T07:10:09.122Z,2.37
2023-12-18T07:12:40.381Z,2.37
2023-12-18T07:15:08.769Z,2.37
2023-12-18T07:17:36.173Z,2.39
2023-12-18T07:20:04.937Z,2.38
2023-12-18T07:22:58.180Z,2.38
2023-12-18T07:25:29.115Z,2.38
2023-12-18T07:27:56.359Z,2.39
2023-12-18T07:31:19.542Z,2.42
2023-12-18T07:34:11.925Z,2.41
2023-12-18T07:36:41.622Z,2.43
2023-12-18T07:39:09.874Z,2.45
2023-12-18T07:45:17.040Z,2.50
2023-12-18T07:47:44.703Z,2.54
2023-12-18T07:50:36.591Z,2.59
2023-12-18T07:53:04.560Z,2.64
2023-12-18T07:55:32.741Z,2.67
2023-12-18T07:58:00.286Z,2.67
2023-12-18T08:00:28.241Z,2.65
2023-12-18T08:03:20.774Z,2.65
2023-12-18T08:06:08.097Z,2.67
2023-12-18T08:08:35.980Z,2.68
2023-12-18T08:11:05.638Z,2.72
2023-12-18T08:13:39.877Z,2.78
2023-12-18T08:16:08.513Z,2.80
2023-12-18T08:18:36.408Z,2.86
2023-12-18T08:21:04.434Z,2.89
2023-12-18T08:23:31.921Z,2.90
2023-12-18T08:25:59.211Z,2.92
2023-12-18T08:28:55.075Z,2.95
2023-12-18T08:31:23.194Z,3.00
2023-12-18T08:34:16.446Z,3.09
2023-12-18T08:37:09.125Z,3.20
2023-12-18T08:40:10.706Z,3.27
2023-12-18T08:42:38.680Z,3.34
2023-12-18T08:45:12.777Z,3.39
2023-12-18T08:47:44.226Z,3.45
2023-12-18T08:50:12.965Z,3.54
2023-12-18T08:53:00.872Z,3.64
2023-12-18T08:55:40.842Z,3.70
2023-12-18T08:59:02.614Z,3.81
2023-12-18T09:01:30.269Z,3.90
2023-12-18T09:03:57.599Z,4.01
2023-12-18T09:06:51.393Z,4.14
2023-12-18T09:09:18.917Z,4.24
2023-12-18T09:12:01.773Z,4.32
2023-12-18T09:14:40.005Z,4.37
2023-12-18T09:17:08.148Z,4.46
2023-12-18T09:19:35.858Z,4.50
2023-12-18T09:22:06.220Z,4.58
2023-12-18T09:24:35.087Z,4.71
2023-12-18T09:27:03.188Z,4.83
2023-12-18T09:29:30.568Z,4.90
2023-12-18T09:32:03.881Z,4.97
2023-12-18T09:34:31.588Z,5.10
2023-12-18T09:36:59.504Z,5.21
2023-12-18T09:39:27.233Z,5.33
2023-12-18T09:42:08.440Z,5.40
2023-12-18T09:44:37.238Z,5.48
2023-12-18T09:47:13.741Z,5.56
2023-12-18T09:49:41.378Z,5.66
2023-12-18T09:52:12.053Z,5.75
2023-12-18T09:54:52.876Z,5.83
2023-12-18T09:57:22.073Z,5.92
2023-12-18T10:00:40.702Z,6.10
2023-12-18T10:03:27.528Z,6.23
2023-12-18T10:05:56.300Z,6.37
2023-12-18T10:08:24.523Z,6.51
2023-12-18T10:10:55.444Z,6.66
2023-12-18T10:13:40.207Z,6.80
2023-12-18T10:16:12.125Z,6.88
2023-12-18T10:19:10.505Z,6.94
2023-12-18T10:21:39.180Z,7.03
2023-12-18T10:27:15.858Z,7.31
2023-12-18T10:29:44.277Z,7.40
2023-12-18T10:32:12.545Z,7.50
2023-12-18T10:34:40.695Z,7.60
2023-12-18T10:37:34.433Z,7.68
2023-12-18T10:40:13.375Z,7.71
2023-12-18T10:43:25.463Z,7.78
2023-12-18T10:46:06.869Z,7.88
2023-12-18T10:48:52.158Z,7.97
2023-12-18T10:51:22.156Z,8.06
2023-12-18T10:54:22.470Z,8.10
2023-12-18T10:56:52.539Z,8.16
2023-12-18T10:59:22.276Z,8.31
2023-12-18T11:01:51.037Z,8.31
2023-12-18T11:04:20.198Z,8.38
2023-12-18T11:06:51.331Z,8.51
2023-12-18T11:09:19.047Z,8.65
2023-12-18T11:11:50.144Z,8.73
2023-12-18T11:18:55.854Z,9.17
2023-12-18T11:21:24.001Z,9.34
2023-12-18T11:24:01.394Z,9.42
2023-12-18T11:26:46.918Z,9.59
2023-12-18T11:30:04.379Z,9.88
2023-12-18T11:32:47.298Z,9.96
2023-12-18T11:35:17.137Z,10.07
2023-12-18T11:37:58.744Z,10.18
2023-12-18T11:41:38.223Z,10.38
2023-12-18T11:45:04.143Z,10.54
2023-12-18T11:47:33.890Z,10.67
2023-12-18T11:50:01.349Z,10.72
2023-12-18T11:52:29.435Z,10.74
2023-12-18T11:54:58.046Z,10.83
2023-12-18T11:57:52.407Z,10.84
2023-12-18T12:00:20.380Z,10.97
2023-12-18T12:03:43.253Z,11.42
2023-12-18T12:06:11.443Z,11.42
2023-12-18T12:08:58.222Z,11.59
2023-12-18T12:11:25.543Z,11.73
2023-12-18T12:13:56.448Z,11.75
2023-12-18T12:16:44.872Z,11.84
2023-12-18T12:19:12.759Z,11.79
2023-12-18T12:21:45.690Z,11.88
2023-12-18T12:27:14.458Z,11.89
2023-12-18T12:30:10.054Z,11.95
2023-12-18T12:32:38.017Z,12.02
2023-12-18T12:35:56.653Z,12.06
2023-12-18T12:38:28.175Z,12.05
2023-12-18T12:44:29.512Z,11.99
2023-12-18T12:46:57.066Z,11.99
2023-12-18T12:49:50.310Z,12.04
2023-12-18T12:52:19.257Z,11.99
2023-12-18T12:55:11.976Z,11.94
2023-12-18T12:58:08.090Z,11.99
2023-12-18T13:00:40.175Z,11.97
2023-12-18T13:03:09.005Z,11.95
2023-12-18T13:05:37.754Z,12.06
2023-12-18T13:08:05.985Z,11.99
2023-12-18T13:10:37.316Z,11.91
2023-12-18T13:13:32.935Z,11.90
2023-12-18T13:18:43.896Z,11.91
2023-12-18T13:21:38.873Z,11.84
2023-12-18T13:24:07.238Z,11.77
2023-12-18T13:26:35.707Z,11.82
2023-12-18T13:29:07.096Z,11.77
2023-12-18T13:31:39.133Z,11.76
2023-12-18T13:34:07.010Z,11.67
2023-12-18T13:36:36.492Z,11.71
2023-12-18T13:39:33.736Z,11.70
2023-12-18T13:42:04.999Z,11.66
2023-12-18T13:44:33.068Z,11.56
2023-12-18T13:47:10.415Z,11.50
2023-12-18T13:49:38.095Z,11.53
2023-12-18T13:52:06.394Z,11.38
2023-12-18T13:58:08.213Z,11.30
2023-12-18T14:01:26.903Z,11.32
2023-12-18T14:06:37.225Z,11.31
2023-12-18T14:09:10.915Z,11.35
2023-12-18T14:11:38.783Z,11.26
2023-12-18T14:14:07.300Z,11.26
2023-12-18T14:16:34.930Z,11.21
2023-12-18T14:19:28.207Z,11.09
2023-12-18T14:21:55.712Z,10.95
2023-12-18T14:24:30.397Z,10.80
2023-12-18T14:27:02.934Z,10.68
2023-12-18T14:29:30.515Z,10.55
2023-12-18T14:32:24.021Z,10.39
2023-12-18T14:34:52.227Z,10.29
2023-12-18T14:37:20.375Z,10.16
2023-12-18T14:39:48.125Z,10.07
2023-12-18T14:42:15.510Z,9.95
2023-12-18T14:44:48.229Z,9.85
2023-12-18T14:47:15.506Z,9.75
2023-12-18T14:49:43.220Z,9.64
2023-12-18T14:52:13.207Z,9.57
2023-12-18T14:55:06.608Z,9.50
2023-12-18T14:57:39.061Z,9.45
2023-12-18T15:00:07.648Z,9.41
2023-12-18T15:03:24.744Z,9.36
2023-12-18T15:06:21.213Z,9.27
2023-12-18T15:09:14.704Z,9.24
2023-12-18T15:11:43.327Z,9.16
2023-12-18T15:14:11.554Z,9.11
2023-12-18T15:16:39.528Z,9.06
2023-12-18T15:19:07.440Z,9.03
2023-12-18T15:21:35.915Z,8.97
2023-12-18T15:24:09.490Z,8.92
2023-12-18T15:26:39.246Z,8.87
2023-12-18T15:29:07.134Z,8.85
2023-12-18T15:31:38.392Z,8.83
2023-12-18T15:34:07.372Z,8.79
2023-12-18T15:36:48.297Z,8.77
2023-12-18T15:39:18.008Z,8.74
2023-12-18T15:41:45.876Z,8.73
2023-12-18T15:44:13.278Z,8.72
2023-12-18T15:46:40.930Z,8.69
2023-12-18T15:49:08.378Z,8.69
2023-12-18T15:51:38.745Z,8.67
2023-12-18T15:54:06.598Z,8.65
2023-12-18T15:56:36.766Z,8.62
2023-12-18T15:59:04.078Z,8.60
2023-12-18T16:01:58.674Z,8.59
2023-12-18T16:04:26.203Z,8.56
2023-12-18T16:06:53.950Z,8.53
2023-12-18T16:09:21.258Z,8.52
2023-12-18T16:12:06.398Z,8.50
2023-12-18T16:14:37.866Z,8.46
2023-12-18T16:17:34.071Z,8.43
2023-12-18T16:20:07.995Z,8.42
2023-12-18T16:22:35.800Z,8.39
2023-12-18T16:25:03.170Z,8.37
2023-12-18T16:27:32.651Z,8.34
2023-12-18T16:30:07.083Z,8.33
2023-12-18T16:32:37.950Z,8.34
2023-12-18T16:35:17.426Z,8.31
2023-12-18T16:37:49.246Z,8.31
2023-12-18T16:40:16.868Z,8.30
2023-12-18T16:42:45.131Z,8.30
2023-12-18T16:45:13.177Z,8.30
2023-12-18T16:48:32.042Z,8.27
2023-12-18T16:52:15.484Z,8.27
2023-12-18T16:54:43.679Z,8.25
2023-12-18T16:57:11.068Z,8.24
2023-12-18T16:59:42.169Z,8.24
2023-12-18T17:02:22.014Z,8.21
2023-12-18T17:04:51.492Z,8.20
2023-12-18T17:07:45.908Z,8.20
2023-12-18T17:10:13.469Z,8.18
2023-12-18T17:13:55.813Z,8.15
2023-12-18T17:16:25.176Z,8.13
2023-12-18T17:19:20.667Z,8.12
2023-12-18T17:21:49.099Z,8.10
2023-12-18T17:24:20.254Z,8.08
2023-12-18T17:27:13.166Z,8.06
2023-12-18T17:30:06.547Z,8.05
2023-12-18T17:32:34.312Z,8.01
2023-12-18T17:35:02.244Z,8.01
2023-12-18T17:37:55.048Z,7.97
2023-12-18T17:40:24.548Z,7.95
2023-12-18T17:42:52.103Z,7.94
2023-12-18T17:45:46.205Z,7.90
2023-12-18T17:48:13.837Z,7.87
2023-12-18T17:50:41.094Z,7.85
2023-12-18T17:53:09.089Z,7.84
2023-12-18T17:56:17.316Z,7.81
2023-12-18T17:58:44.842Z,7.79
2023-12-18T18:02:04.713Z,7.78
2023-12-18T18:04:32.665Z,7.76
2023-12-18T18:07:01.817Z,7.74
2023-12-18T18:09:40.792Z,7.74
2023-12-18T18:12:09.622Z,7.73
2023-12-18T18:14:37.532Z,7.71
2023-12-18T18:17:06.309Z,7.71
2023-12-18T18:19:36.877Z,7.68
2023-12-18T18:22:04.786Z,7.66
2023-12-18T18:25:21.113Z,7.64
2023-12-18T18:27:49.129Z,7.64
2023-12-18T18:30:16.996Z,7.62
2023-12-18T18:32:47.069Z,7.60
2023-12-18T18:35:15.261Z,7.59
2023-12-18T18:37:42.653Z,7.57
2023-12-18T18:43:19.280Z,7.55
2023-12-18T18:45:50.248Z,7.55
2023-12-18T18:48:17.728Z,7.56
2023-12-18T18:50:45.300Z,7.53
2023-12-18T18:53:12.766Z,7.51
2023-12-18T18:55:43.660Z,7.50
2023-12-18T18:58:12.120Z,7.50
2023-12-18T19:01:05.179Z,7.49
2023-12-18T19:03:35.530Z,7.48
2023-12-18T19:06:04.357Z,7.46
2023-12-18T19:08:31.729Z,7.45
2023-12-18T19:12:15.634Z,7.43
2023-12-18T19:15:00.350Z,7.41
2023-12-18T19:17:53.425Z,7.40
2023-12-18T19:20:46.875Z,7.38
2023-12-18T19:23:14.397Z,7.35
2023-12-18T19:25:45.186Z,7.34
2023-12-18T19:28:17.161Z,7.36
2023-12-18T19:30:45.364Z,7.35
2023-12-18T19:33:21.994Z,7.34
2023-12-18T19:36:08.379Z,7.33
2023-12-18T19:39:02.126Z,7.30
2023-12-18T19:41:30.327Z,7.30
2023-12-18T19:44:04.978Z,7.29
2023-12-18T19:46:36.226Z,7.30
2023-12-18T19:49:03.601Z,7.27
2023-12-18T19:51:39.311Z,7.27
2023-12-18T19:54:12.618Z,7.25
2023-12-18T19:56:42.428Z,7.24
2023-12-18T19:59:09.729Z,7.20
2023-12-18T20:01:37.235Z,7.18
2023-12-18T20:04:05.175Z,7.18
2023-12-18T20:06:33.010Z,7.16
2023-12-18T20:09:01.060Z,7.16
2023-12-18T20:11:29.365Z,7.13
2023-12-18T20:13:56.809Z,7.12
2023-12-18T20:16:25.179Z,7.09
2023-12-18T20:21:57.515Z,7.06
2023-12-18T20:24:31.122Z,7.04
2023-12-18T20:26:59.433Z,7.03
2023-12-18T20:29:26.597Z,7.02
2023-12-18T20:32:04.394Z,7.01
2023-12-18T20:35:25.716Z,6.99
2023-12-18T20:37:54.077Z,6.98
2023-12-18T20:40:21.247Z,6.96
2023-12-18T20:42:49.116Z,6.96
2023-12-18T20:45:28.532Z,6.95
2023-12-18T20:48:01.225Z,6.94
2023-12-18T20:50:28.832Z,6.92
2023-12-18T20:52:59.408Z,6.92
2023-12-18T20:55:26.768Z,6.93
2023-12-18T20:58:47.291Z,6.89
2023-12-18T21:01:14.724Z,6.90
2023-12-18T21:03:49.893Z,6.89
2023-12-18T21:06:25.583Z,6.87
2023-12-18T21:08:53.057Z,6.86
2023-12-18T21:11:26.077Z,6.86
2023-12-18T21:13:54.124Z,6.85
2023-12-18T21:16:56.596Z,6.82
2023-12-18T21:19:24.141Z,6.84
2023-12-18T21:21:54.085Z,6.81
2023-12-18T21:24:25.824Z,6.80
2023-12-18T21:26:54.971Z,6.79
2023-12-18T21:29:29.197Z,6.79
2023-12-18T21:31:56.665Z,6.76
2023-12-18T21:34:27.851Z,6.76
2023-12-18T21:37:36.458Z,6.74
2023-12-18T21:40:06.375Z,6.72
2023-12-18T21:42:37.220Z,6.69
2023-12-18T21:48:39.232Z,6.68
2023-12-18T21:51:06.791Z,6.69
2023-12-18T21:53:34.610Z,6.66
2023-12-18T21:56:27.338Z,6.64
2023-12-18T21:58:54.539Z,6.64
2023-12-18T22:01:22.279Z,6.64
2023-12-18T22:04:18.027Z,6.64
2023-12-18T22:06:46.010Z,6.61
2023-12-18T22:09:13.372Z,6.59
2023-12-18T22:12:08.459Z,6.57
2023-12-18T22:14:45.217Z,6.56
2023-12-18T22:17:44.120Z,6.56
2023-12-18T22:20:12.770Z,6.55
2023-12-18T22:22:49.379Z,6.51
2023-12-18T22:25:25.431Z,6.52
2023-12-18T22:27:55.270Z,6.50
2023-12-18T22:30:22.735Z,6.48
2023-12-18T22:32:50.899Z,6.46
2023-12-18T22:35:19.785Z,6.45
2023-12-18T22:37:58.619Z,6.44
2023-12-18T22:40:25.842Z,6.44
2023-12-18T22:42:58.579Z,6.42
2023-12-18T22:45:25.780Z,6.43
2023-12-18T22:47:58.624Z,6.41
2023-12-18T22:50:32.420Z,6.40
2023-12-18T22:53:05.413Z,6.37
2023-12-18T22:56:05.353Z,6.36
2023-12-18T22:58:39.080Z,6.33
2023-12-18T23:01:16.758Z,6.31
2023-12-18T23:03:46.630Z,6.28
2023-12-18T23:06:13.984Z,6.27
2023-12-18T23:09:03.774Z,6.25
2023-12-18T23:11:31.567Z,6.24
2023-12-18T23:13:59.084Z,6.21
2023-12-18T23:16:51.610Z,6.20
2023-12-18T23:19:23.475Z,6.17
2023-12-18T23:22:16.253Z,6.15
2023-12-18T23:24:44.673Z,6.12
2023-12-18T23:27:12.644Z,6.07
2023-12-18T23:29:40.572Z,6.05
2023-12-18T23:32:07.882Z,6.01
2023-12-18T23:34:56.253Z,5.98
2023-12-18T23:37:24.101Z,5.95
2023-12-18T23:41:07.663Z,5.89
2023-12-18T23:43:35.555Z,5.86
2023-12-18T23:46:03.164Z,5.82
2023-12-18T23:49:03.874Z,5.77
2023-12-18T23:51:41.049Z,5.73
2023-12-18T23:54:09.808Z,5.71
2023-12-18T23:56:55.235Z,5.67
2023-12-18T23:59:23.296Z,5.63
